createdAt,value
2023-01-30T00:02:15.429Z,-1.70
2023-01-30T00:04:43.487Z,-1.70
2023-01-30T00:07:11.466Z,-1.60
2023-01-30T00:09:39.327Z,-1.70
2023-01-30T00:12:09.018Z,-1.70
2023-01-30T00:14:36.939Z,-1.70
2023-01-30T00:17:04.825Z,-1.60
2023-01-30T00:19:32.710Z,-1.60
2023-01-30T00:22:00.618Z,-1.60
2023-01-30T00:24:28.590Z,-1.60
2023-01-30T00:26:56.641Z,-1.60
2023-01-30T00:29:26.094Z,-1.50
2023-01-30T00:31:55.712Z,-1.50
2023-01-30T00:34:23.655Z,-1.50
2023-01-30T00:37:07.183Z,-1.40
2023-01-30T00:39:36.145Z,-1.40
2023-01-30T00:42:21.853Z,-1.40
2023-01-30T00:45:08.988Z,-1.30
2023-01-30T00:47:36.944Z,-1.30
2023-01-30T00:50:05.784Z,-1.20
2023-01-30T00:52:33.711Z,-1.30
2023-01-30T00:55:01.765Z,-1.20
2023-01-30T00:57:29.683Z,-1.20
2023-01-30T00:59:59.385Z,-1.20
2023-01-30T01:02:27.481Z,-1.20
2023-01-30T01:04:55.401Z,-1.20
2023-01-30T01:07:23.509Z,-1.20
2023-01-30T01:09:51.434Z,-1.20
2023-01-30T01:12:20.864Z,-1.20
2023-01-30T01:14:48.780Z,-1.20
2023-01-30T01:17:18.243Z,-1.10
2023-01-30T01:19:46.156Z,-1.10
2023-01-30T01:22:14.285Z,-1.10
2023-01-30T01:24:42.202Z,-1.10
2023-01-30T01:27:10.176Z,-1.20
2023-01-30T01:29:40.427Z,-1.20
2023-01-30T01:32:08.376Z,-1.10
2023-01-30T01:34:41.109Z,-1.10
2023-01-30T01:37:09.101Z,-1.10
2023-01-30T01:39:51.064Z,-1.10
2023-01-30T01:42:19.465Z,-1.20
2023-01-30T01:45:12.472Z,-1.20
2023-01-30T01:47:46.541Z,-1.20
2023-01-30T01:50:21.643Z,-1.20
2023-01-30T01:52:52.681Z,-1.20
2023-01-30T01:55:25.829Z,-1.20
2023-01-30T01:57:59.019Z,-1.10
2023-01-30T02:00:27.738Z,-1.10
2023-01-30T02:03:01.089Z,-1.20
2023-01-30T02:05:35.931Z,-1.20
2023-01-30T02:08:09.576Z,-1.20
2023-01-30T02:10:47.176Z,-1.20
2023-01-30T02:13:16.679Z,-1.20
2023-01-30T02:15:45.037Z,-1.20
2023-01-30T02:18:14.286Z,-1.20
2023-01-30T02:21:06.759Z,-1.20
2023-01-30T02:24:30.482Z,-1.20
2023-01-30T02:27:42.253Z,-1.20
2023-01-30T02:31:02.635Z,-1.20
2023-01-30T02:33:45.441Z,-1.20
2023-01-30T02:36:26.763Z,-1.20
2023-01-30T02:39:06.109Z,-1.20
2023-01-30T02:41:45.738Z,-1.20
2023-01-30T02:44:25.580Z,-1.20
2023-01-30T02:47:05.184Z,-1.20
2023-01-30T02:49:41.873Z,-1.20
2023-01-30T02:52:13.257Z,-1.20
2023-01-30T02:54:41.216Z,-1.10
2023-01-30T02:57:21.517Z,-1.20
2023-01-30T02:59:57.765Z,-1.10
2023-01-30T03:03:07.193Z,-1.10
2023-01-30T03:06:05.099Z,-1.00
2023-01-30T03:08:43.691Z,-1.00
2023-01-30T03:11:13.558Z,-1.10
2023-01-30T03:13:53.426Z,-1.00
2023-01-30T03:16:28.194Z,-1.00
2023-01-30T03:18:57.613Z,-1.00
2023-01-30T03:21:25.544Z,-1.00
2023-01-30T03:23:54.111Z,-0.90
2023-01-30T03:26:27.108Z,-1.00
2023-01-30T03:28:55.499Z,-1.00
2023-01-30T03:31:23.636Z,-0.90
2023-01-30T03:33:51.910Z,-0.90
2023-01-30T03:36:21.334Z,-0.90
2023-01-30T03:38:49.395Z,-0.90
2023-01-30T03:41:17.545Z,-0.90
2023-01-30T03:43:45.445Z,-0.90
2023-01-30T03:46:13.468Z,-0.90
2023-01-30T03:48:41.455Z,-0.90
2023-01-30T03:51:12.983Z,-0.80
2023-01-30T03:53:42.252Z,-0.80
2023-01-30T03:56:11.039Z,-0.80
2023-01-30T03:58:39.826Z,-0.80
2023-01-30T04:01:19.930Z,-0.80
2023-01-30T04:03:48.472Z,-0.70
2023-01-30T04:06:17.399Z,-0.70
2023-01-30T04:08:47.395Z,-0.70
2023-01-30T04:11:28.606Z,-0.60
2023-01-30T04:13:56.555Z,-0.60
2023-01-30T04:16:27.912Z,-0.60
2023-01-30T04:19:14.441Z,-0.60
2023-01-30T04:21:43.034Z,-0.60
2023-01-30T04:24:12.550Z,-0.60
2023-01-30T04:26:40.864Z,-0.50
2023-01-30T04:29:09.426Z,-0.60
2023-01-30T04:31:39.163Z,-0.60
2023-01-30T04:34:15.732Z,-0.50
2023-01-30T04:36:44.226Z,-0.50
2023-01-30T04:39:14.759Z,-0.50
2023-01-30T04:41:42.721Z,-0.50
2023-01-30T04:44:11.213Z,-0.40
2023-01-30T04:46:52.433Z,-0.40
2023-01-30T04:49:21.590Z,-0.40
2023-01-30T04:51:50.687Z,-0.30
2023-01-30T04:54:20.002Z,-0.30
2023-01-30T04:56:47.944Z,-0.20
2023-01-30T04:59:17.352Z,-0.10
2023-01-30T05:01:47.180Z,-0.10
2023-01-30T05:04:15.891Z,0.00
2023-01-30T05:06:43.843Z,0.00
2023-01-30T05:09:11.756Z,0.00
2023-01-30T05:11:41.198Z,0.10
2023-01-30T05:14:09.109Z,0.10
2023-01-30T05:16:37.123Z,0.10
2023-01-30T05:19:05.047Z,0.10
2023-01-30T05:21:32.954Z,0.10
2023-01-30T05:24:00.855Z,0.10
2023-01-30T05:26:28.844Z,0.10
2023-01-30T05:28:59.041Z,0.10
2023-01-30T05:31:27.188Z,0.10
2023-01-30T05:33:55.574Z,0.10
2023-01-30T05:36:24.790Z,0.20
2023-01-30T05:38:52.850Z,0.20
2023-01-30T05:41:20.925Z,0.30
2023-01-30T05:43:51.426Z,0.20
2023-01-30T05:46:21.922Z,0.30
2023-01-30T05:48:49.848Z,0.30
2023-01-30T05:51:20.439Z,0.30
2023-01-30T05:53:49.316Z,0.40
2023-01-30T05:56:18.553Z,0.30
2023-01-30T05:58:52.574Z,0.30
2023-01-30T06:01:24.084Z,0.40
2023-01-30T06:03:52.251Z,0.40
2023-01-30T06:06:20.775Z,0.40
2023-01-30T06:08:49.015Z,0.50
2023-01-30T06:11:18.296Z,0.50
2023-01-30T06:13:46.813Z,0.50
2023-01-30T06:16:18.034Z,0.50
2023-01-30T06:18:47.886Z,0.60
2023-01-30T06:21:17.277Z,0.60
2023-01-30T06:23:46.341Z,0.60
2023-01-30T06:26:14.410Z,0.70
2023-01-30T06:28:42.714Z,0.70
2023-01-30T06:31:10.724Z,0.70
2023-01-30T06:33:38.825Z,0.80
2023-01-30T06:36:09.259Z,0.90
2023-01-30T06:38:37.224Z,0.90
2023-01-30T06:41:05.364Z,0.90
2023-01-30T06:43:33.320Z,0.90
2023-01-30T06:46:01.427Z,0.90
2023-01-30T06:48:29.443Z,1.00
2023-01-30T06:50:57.373Z,1.00
2023-01-30T06:53:30.438Z,1.00
2023-01-30T06:55:59.163Z,1.00
2023-01-30T06:58:27.546Z,1.10
2023-01-30T07:00:55.595Z,1.10
2023-01-30T07:03:23.729Z,1.10
2023-01-30T07:05:52.010Z,1.10
2023-01-30T07:08:20.447Z,1.10
2023-01-30T07:10:50.628Z,1.10
2023-01-30T07:13:18.587Z,1.10
2023-01-30T07:15:47.144Z,1.10
2023-01-30T07:18:15.258Z,1.10
2023-01-30T07:20:43.219Z,1.10
2023-01-30T07:23:11.294Z,1.10
2023-01-30T07:25:39.219Z,1.10
2023-01-30T07:28:10.300Z,1.10
2023-01-30T07:30:38.399Z,1.10
2023-01-30T07:33:07.517Z,1.10
2023-01-30T07:35:38.189Z,1.20
2023-01-30T07:38:07.161Z,1.20
2023-01-30T07:40:35.222Z,1.30
2023-01-30T07:43:05.633Z,1.30
2023-01-30T07:45:40.542Z,1.30
2023-01-30T07:48:08.992Z,1.30
2023-01-30T07:50:37.268Z,1.30
2023-01-30T07:53:05.737Z,1.30
2023-01-30T07:55:34.662Z,1.40
2023-01-30T07:58:02.925Z,1.30
2023-01-30T08:00:31.571Z,1.30
2023-01-30T08:03:00.846Z,1.30
2023-01-30T08:05:28.847Z,1.40
2023-01-30T08:07:57.967Z,1.40
2023-01-30T08:10:26.172Z,1.40
2023-01-30T08:12:55.057Z,1.50
2023-01-30T08:15:23.225Z,1.50
2023-01-30T08:17:58.163Z,1.60
2023-01-30T08:20:29.045Z,1.60
2023-01-30T08:22:57.209Z,1.60
2023-01-30T08:25:25.333Z,1.60
2023-01-30T08:27:54.074Z,1.60
2023-01-30T08:30:23.753Z,1.60
2023-01-30T08:32:51.824Z,1.50
2023-01-30T08:35:19.760Z,1.50
2023-01-30T08:37:49.200Z,1.60
2023-01-30T08:40:17.995Z,1.60
2023-01-30T08:42:46.477Z,1.60
2023-01-30T08:45:14.779Z,1.60
2023-01-30T08:47:43.104Z,1.60
2023-01-30T08:50:12.277Z,1.60
2023-01-30T08:52:40.439Z,1.60
2023-01-30T08:55:10.550Z,1.60
2023-01-30T08:57:38.456Z,1.70
2023-01-30T09:00:09.021Z,1.70
2023-01-30T09:02:37.377Z,1.70
2023-01-30T09:05:06.818Z,1.70
2023-01-30T09:07:34.873Z,1.80
2023-01-30T09:10:02.908Z,1.80
2023-01-30T09:12:32.181Z,1.80
2023-01-30T09:15:00.459Z,1.80
2023-01-30T09:17:28.395Z,1.80
2023-01-30T09:19:56.338Z,1.90
2023-01-30T09:22:24.236Z,1.90
2023-01-30T09:24:52.090Z,2.00
2023-01-30T09:27:20.067Z,2.00
2023-01-30T09:29:49.805Z,2.00
2023-01-30T09:32:17.745Z,2.00
2023-01-30T09:34:45.639Z,2.10
2023-01-30T09:37:13.536Z,2.10
2023-01-30T09:39:41.467Z,2.10
2023-01-30T09:42:38.191Z,2.10
2023-01-30T09:45:44.012Z,2.10
2023-01-30T09:48:21.387Z,2.10
2023-01-30T09:51:12.789Z,2.20
2023-01-30T09:54:02.963Z,2.20
2023-01-30T09:56:31.242Z,2.20
2023-01-30T09:59:03.167Z,2.30
2023-01-30T10:01:45.500Z,2.20
2023-01-30T10:04:19.606Z,2.20
2023-01-30T10:07:04.893Z,2.30
2023-01-30T10:09:45.953Z,2.30
2023-01-30T10:12:31.579Z,2.40
2023-01-30T10:15:26.067Z,2.30
2023-01-30T10:18:17.346Z,2.30
2023-01-30T10:20:59.505Z,2.30
2023-01-30T10:23:48.615Z,2.30
2023-01-30T10:26:21.555Z,2.30
2023-01-30T10:29:07.318Z,2.40
2023-01-30T10:31:43.347Z,2.50
2023-01-30T10:34:19.613Z,2.60
2023-01-30T10:36:57.149Z,2.70
2023-01-30T10:39:36.929Z,2.70
2023-01-30T10:42:12.808Z,2.70
2023-01-30T10:44:42.726Z,2.70
2023-01-30T10:47:46.286Z,2.60
2023-01-30T10:50:21.148Z,2.60
2023-01-30T10:53:02.544Z,2.60
2023-01-30T10:55:41.706Z,2.50
2023-01-30T10:58:23.544Z,2.50
2023-01-30T11:01:00.992Z,2.50
2023-01-30T11:03:41.502Z,2.50
2023-01-30T11:06:17.501Z,2.50
2023-01-30T11:08:46.235Z,2.50
2023-01-30T11:11:31.076Z,2.50
2023-01-30T11:14:05.181Z,2.50
2023-01-30T11:16:43.165Z,2.50
2023-01-30T11:19:21.983Z,2.50
2023-01-30T11:21:55.611Z,2.50
2023-01-30T11:24:30.524Z,2.60
2023-01-30T11:27:11.645Z,2.60
2023-01-30T11:29:41.369Z,2.60
2023-01-30T11:32:16.575Z,2.70
2023-01-30T11:34:45.355Z,2.70
2023-01-30T11:37:24.325Z,2.70
2023-01-30T11:39:54.151Z,2.70
2023-01-30T11:42:30.672Z,2.70
2023-01-30T11:45:16.738Z,2.70
2023-01-30T11:47:57.967Z,2.70
2023-01-30T11:50:37.075Z,2.60
2023-01-30T11:53:29.227Z,2.60
2023-01-30T11:56:06.283Z,2.50
2023-01-30T11:58:40.743Z,2.50
2023-01-30T12:01:11.769Z,2.50
2023-01-30T12:03:50.151Z,2.50
2023-01-30T12:06:30.899Z,2.40
2023-01-30T12:09:01.050Z,2.40
2023-01-30T12:11:44.956Z,2.40
2023-01-30T12:14:39.644Z,2.30
2023-01-30T12:17:19.667Z,2.20
2023-01-30T12:20:03.806Z,2.10
2023-01-30T12:22:42.714Z,2.10
2023-01-30T12:25:21.327Z,2.10
2023-01-30T12:33:11.716Z,2.20
2023-01-30T12:36:03.965Z,2.20
2023-01-30T12:38:55.287Z,2.20
2023-01-30T12:41:42.977Z,2.30
2023-01-30T12:44:47.198Z,2.20
2023-01-30T12:47:42.908Z,2.10
2023-01-30T12:50:34.450Z,2.20
2023-01-30T12:53:27.207Z,2.40
2023-01-30T12:56:22.833Z,3.00
2023-01-30T12:59:05.930Z,3.70
2023-01-30T13:01:48.739Z,3.80
2023-01-30T13:04:30.711Z,3.60
2023-01-30T13:07:15.989Z,3.30
2023-01-30T13:10:09.738Z,3.10
2023-01-30T13:12:47.212Z,3.00
2023-01-30T13:15:28.732Z,2.90
2023-01-30T13:18:11.717Z,2.90
2023-01-30T13:21:00.382Z,2.90
2023-01-30T13:23:45.429Z,2.90
2023-01-30T13:26:20.083Z,2.90
2023-01-30T13:28:51.142Z,2.80
2023-01-30T13:31:25.728Z,2.70
2023-01-30T13:34:06.030Z,2.70
2023-01-30T13:36:43.858Z,2.70
2023-01-30T13:39:18.964Z,2.60
2023-01-30T13:41:57.460Z,2.60
2023-01-30T13:44:31.707Z,2.60
2023-01-30T13:47:18.733Z,2.70
2023-01-30T13:49:57.847Z,2.70
2023-01-30T13:52:37.421Z,2.70
2023-01-30T13:55:30.239Z,2.70
2023-01-30T13:58:15.067Z,2.80
2023-01-30T14:00:55.381Z,2.90
2023-01-30T14:03:30.489Z,3.00
2023-01-30T14:06:33.408Z,3.10
2023-01-30T14:09:18.006Z,3.10
2023-01-30T14:11:51.453Z,3.10
2023-01-30T14:14:29.740Z,3.10
2023-01-30T14:17:09.954Z,3.20
2023-01-30T14:19:59.284Z,3.10
2023-01-30T14:22:35.515Z,3.10
2023-01-30T14:25:48.005Z,3.10
2023-01-30T14:28:51.996Z,3.10
2023-01-30T14:31:53.887Z,3.10
2023-01-30T14:34:43.133Z,3.10
2023-01-30T14:37:54.699Z,3.10
2023-01-30T14:40:35.921Z,3.10
2023-01-30T14:43:53.697Z,3.10
2023-01-30T14:46:54.415Z,3.10
2023-01-30T14:49:33.967Z,3.10
2023-01-30T14:52:05.401Z,3.10
2023-01-30T14:54:45.511Z,3.10
2023-01-30T14:57:24.794Z,3.10
2023-01-30T15:00:17.661Z,3.20
2023-01-30T15:02:54.458Z,3.20
2023-01-30T15:05:31.352Z,3.20
2023-01-30T15:08:10.046Z,3.20
2023-01-30T15:11:09.533Z,3.20
2023-01-30T15:14:05.409Z,3.20
2023-01-30T15:17:05.612Z,3.20
2023-01-30T15:20:09.537Z,3.20
2023-01-30T15:22:53.230Z,3.20
2023-01-30T15:25:44.594Z,3.30
2023-01-30T15:28:31.958Z,3.30
2023-01-30T15:31:12.149Z,3.30
2023-01-30T15:33:49.238Z,3.40
2023-01-30T15:36:25.755Z,3.40
2023-01-30T15:39:03.138Z,3.40
2023-01-30T15:41:39.884Z,3.40
2023-01-30T15:44:50.972Z,3.40
2023-01-30T15:47:48.176Z,3.40
2023-01-30T15:50:17.015Z,3.50
2023-01-30T15:52:49.364Z,3.50
2023-01-30T15:55:24.095Z,3.60
2023-01-30T15:57:58.259Z,3.80
2023-01-30T16:00:30.376Z,3.80
2023-01-30T16:03:00.792Z,3.80
2023-01-30T16:05:29.920Z,3.90
2023-01-30T16:08:11.486Z,3.90
2023-01-30T16:10:47.327Z,3.90
2023-01-30T16:13:19.916Z,4.00
2023-01-30T16:15:56.182Z,3.90
2023-01-30T16:18:32.058Z,4.00
2023-01-30T16:21:04.677Z,4.00
2023-01-30T16:23:37.655Z,4.00
2023-01-30T16:26:08.652Z,4.00
2023-01-30T16:28:38.912Z,4.10
2023-01-30T16:31:09.774Z,4.20
2023-01-30T16:33:39.033Z,4.20
2023-01-30T16:36:33.954Z,4.30
2023-01-30T16:39:02.156Z,4.30
2023-01-30T16:41:33.413Z,4.30
2023-01-30T16:44:18.816Z,4.30
2023-01-30T16:46:51.025Z,4.20
2023-01-30T16:49:41.821Z,4.20
2023-01-30T16:52:20.519Z,4.30
2023-01-30T16:54:53.149Z,4.30
2023-01-30T16:57:36.620Z,4.30
2023-01-30T17:00:21.101Z,4.20
2023-01-30T17:02:54.959Z,4.30
2023-01-30T17:05:27.694Z,4.20
2023-01-30T17:08:00.407Z,4.20
2023-01-30T17:10:55.680Z,4.10
2023-01-30T17:13:36.759Z,4.10
2023-01-30T17:16:32.839Z,4.10
2023-01-30T17:19:01.135Z,4.10
2023-01-30T17:21:36.103Z,4.10
2023-01-30T17:24:06.839Z,4.00
2023-01-30T17:26:35.622Z,4.00
2023-01-30T17:29:03.717Z,4.00
2023-01-30T17:31:32.107Z,3.90
2023-01-30T17:34:00.422Z,3.90
2023-01-30T17:36:31.925Z,3.90
2023-01-30T17:39:00.521Z,3.90
2023-01-30T17:41:33.494Z,3.90
2023-01-30T17:44:01.561Z,3.80
2023-01-30T17:46:36.806Z,3.90
2023-01-30T17:49:09.570Z,3.90
2023-01-30T17:51:38.832Z,3.90
2023-01-30T17:54:06.834Z,3.90
2023-01-30T17:56:38.503Z,3.90
2023-01-30T17:59:10.468Z,3.90
2023-01-30T18:01:38.528Z,3.90
2023-01-30T18:04:06.580Z,3.90
2023-01-30T18:06:36.040Z,3.90
2023-01-30T18:09:05.609Z,3.90
2023-01-30T18:11:33.736Z,3.90
2023-01-30T18:14:01.704Z,3.90
2023-01-30T18:16:31.798Z,3.90
2023-01-30T18:19:03.965Z,3.90
2023-01-30T18:21:33.903Z,3.90
2023-01-30T18:24:02.757Z,4.00
2023-01-30T18:26:32.438Z,3.90
2023-01-30T18:29:00.751Z,4.00
2023-01-30T18:31:31.306Z,4.00
2023-01-30T18:33:59.717Z,4.00
2023-01-30T18:36:27.779Z,4.00
2023-01-30T18:38:56.253Z,4.00
2023-01-30T18:41:26.191Z,4.00
2023-01-30T18:43:58.436Z,4.10
2023-01-30T18:46:27.879Z,4.10
2023-01-30T18:48:57.701Z,4.10
2023-01-30T18:51:28.382Z,4.00
2023-01-30T18:53:57.194Z,4.10
2023-01-30T18:56:27.965Z,4.00
2023-01-30T18:58:59.497Z,4.00
2023-01-30T19:01:30.126Z,4.00
2023-01-30T19:04:00.438Z,4.00
2023-01-30T19:06:30.446Z,4.00
2023-01-30T19:08:59.047Z,4.00
2023-01-30T19:11:49.225Z,4.00
2023-01-30T19:14:23.917Z,4.00
2023-01-30T19:16:52.096Z,4.00
2023-01-30T19:19:20.142Z,4.00
2023-01-30T19:21:49.707Z,4.00
2023-01-30T19:24:19.348Z,4.10
2023-01-30T19:26:48.521Z,4.00
2023-01-30T19:29:17.078Z,4.00
2023-01-30T19:31:47.908Z,4.10
2023-01-30T19:34:15.889Z,4.10
2023-01-30T19:36:43.918Z,4.10
2023-01-30T19:39:12.011Z,4.20
2023-01-30T19:41:40.092Z,4.20
2023-01-30T19:44:09.893Z,4.20
2023-01-30T19:46:37.969Z,4.20
2023-01-30T19:49:07.642Z,4.20
2023-01-30T19:51:36.644Z,4.20
2023-01-30T19:54:07.145Z,4.20
2023-01-30T19:56:37.303Z,4.20
2023-01-30T19:59:05.918Z,4.30
2023-01-30T20:01:38.072Z,4.20
2023-01-30T20:04:07.674Z,4.30
2023-01-30T20:06:37.573Z,4.30
2023-01-30T20:09:09.716Z,4.30
2023-01-30T20:11:40.636Z,4.30
2023-01-30T20:14:10.118Z,4.20
2023-01-30T20:16:38.211Z,4.20
2023-01-30T20:19:09.987Z,4.30
2023-01-30T20:21:37.989Z,4.30
2023-01-30T20:24:06.999Z,4.30
2023-01-30T20:26:37.553Z,4.30
2023-01-30T20:29:07.135Z,4.30
2023-01-30T20:31:38.291Z,4.30
2023-01-30T20:34:12.536Z,4.30
2023-01-30T20:36:40.759Z,4.30
2023-01-30T20:39:08.800Z,4.30
2023-01-30T20:41:37.732Z,4.30
2023-01-30T20:44:08.536Z,4.30
2023-01-30T20:46:41.193Z,4.40
2023-01-30T20:49:14.230Z,4.40
2023-01-30T20:51:42.735Z,4.40
2023-01-30T20:54:14.486Z,4.30
2023-01-30T20:56:45.628Z,4.30
2023-01-30T20:59:16.315Z,4.20
2023-01-30T21:01:45.342Z,4.20
2023-01-30T21:04:16.864Z,4.30
2023-01-30T21:06:47.107Z,4.20
2023-01-30T21:09:18.135Z,4.20
2023-01-30T21:11:46.733Z,4.20
2023-01-30T21:14:15.948Z,4.10
2023-01-30T21:16:44.078Z,4.20
2023-01-30T21:19:17.390Z,4.10
2023-01-30T21:21:50.527Z,4.10
2023-01-30T21:24:24.056Z,4.00
2023-01-30T21:26:53.105Z,4.00
2023-01-30T21:29:25.482Z,3.90
2023-01-30T21:31:54.283Z,3.90
2023-01-30T21:34:23.842Z,3.80
2023-01-30T21:37:05.978Z,3.80
2023-01-30T21:39:52.956Z,3.80
2023-01-30T21:42:39.115Z,3.80
2023-01-30T21:45:08.750Z,3.80
2023-01-30T21:47:37.111Z,3.70
2023-01-30T21:50:07.890Z,3.70
2023-01-30T21:52:36.889Z,3.60
2023-01-30T21:55:05.676Z,3.60
2023-01-30T21:57:33.623Z,3.50
2023-01-30T22:00:01.508Z,3.50
2023-01-30T22:02:29.447Z,3.50
2023-01-30T22:04:57.352Z,3.50
2023-01-30T22:07:26.592Z,3.60
2023-01-30T22:09:54.551Z,3.60
2023-01-30T22:12:22.489Z,3.60
2023-01-30T22:14:50.501Z,3.70
2023-01-30T22:17:18.450Z,3.80
2023-01-30T22:19:46.420Z,3.80
2023-01-30T22:22:14.557Z,3.90
2023-01-30T22:24:43.785Z,3.80
2023-01-30T22:27:12.256Z,3.80
2023-01-30T22:29:40.154Z,3.80
2023-01-30T22:32:08.100Z,3.80
2023-01-30T22:34:36.369Z,3.90
2023-01-30T22:37:04.819Z,4.00
2023-01-30T22:39:32.741Z,4.00
2023-01-30T22:42:01.991Z,4.10
2023-01-30T22:44:29.942Z,4.10
2023-01-30T22:46:57.913Z,4.10
2023-01-30T22:49:25.944Z,4.10
2023-01-30T22:51:53.843Z,4.10
2023-01-30T22:54:24.940Z,4.00
2023-01-30T22:56:53.204Z,4.10
2023-01-30T22:59:22.854Z,4.20
2023-01-30T23:01:52.012Z,4.00
2023-01-30T23:04:22.477Z,3.90
2023-01-30T23:06:52.518Z,4.00
2023-01-30T23:09:23.989Z,3.90
2023-01-30T23:12:12.399Z,3.80
2023-01-30T23:14:42.759Z,3.80
2023-01-30T23:17:24.876Z,3.80
2023-01-30T23:19:53.046Z,3.90
2023-01-30T23:22:21.302Z,3.80
2023-01-30T23:24:50.962Z,3.80
2023-01-30T23:27:18.996Z,3.80
2023-01-30T23:29:48.373Z,3.80
2023-01-30T23:32:18.993Z,3.70
2023-01-30T23:34:47.220Z,3.70
2023-01-30T23:37:15.152Z,3.70
2023-01-30T23:39:43.123Z,3.70
2023-01-30T23:42:11.084Z,3.70
2023-01-30T23:44:39.015Z,3.70
2023-01-30T23:47:08.248Z,3.70
2023-01-30T23:49:36.371Z,3.70
2023-01-30T23:52:04.391Z,3.70
2023-01-30T23:54:32.264Z,3.70
2023-01-30T23:57:00.162Z,3.70
2023-01-30T23:59:28.149Z,3.70
